createdAt,value
2019-05-29T00:01:35.136Z,19.52
2019-05-29T00:04:06.059Z,19.59
2019-05-29T00:06:35.545Z,19.57
2019-05-29T00:09:06.395Z,19.42
2019-05-29T00:11:35.823Z,19.23
2019-05-29T00:14:19.714Z,19.17
2019-05-29T00:16:36.496Z,19.21
2019-05-29T00:19:06.938Z,19.17
2019-05-29T00:21:36.778Z,19.09
2019-05-29T00:24:06.340Z,19.07
2019-05-29T00:26:35.729Z,19.05
2019-05-29T00:29:05.667Z,19.03
2019-05-29T00:31:35.043Z,18.99
2019-05-29T00:34:04.491Z,18.92
2019-05-29T00:36:33.881Z,18.89
2019-05-29T00:39:04.221Z,18.75
2019-05-29T00:41:33.645Z,18.79
2019-05-29T00:44:03.092Z,18.74
2019-05-29T00:46:32.527Z,18.74
2019-05-29T00:49:01.897Z,18.59
2019-05-29T00:51:31.357Z,18.56
2019-05-29T00:54:00.703Z,18.40
2019-05-29T00:56:30.150Z,18.40
2019-05-29T00:58:59.501Z,18.33
2019-05-29T01:01:28.952Z,18.25
2019-05-29T01:03:58.358Z,18.16
2019-05-29T01:06:27.786Z,18.08
2019-05-29T01:08:57.159Z,18.05
2019-05-29T01:11:26.523Z,17.99
2019-05-29T01:13:55.890Z,17.97
2019-05-29T01:16:25.228Z,17.91
2019-05-29T01:18:56.227Z,17.89
2019-05-29T01:21:25.633Z,17.83
2019-05-29T01:23:55.048Z,17.91
2019-05-29T01:26:24.477Z,18.04
2019-05-29T01:28:53.832Z,17.97
2019-05-29T01:31:23.617Z,18.03
2019-05-29T01:33:53.080Z,18.03
2019-05-29T01:36:22.685Z,17.98
2019-05-29T01:38:52.098Z,17.98
2019-05-29T01:41:21.533Z,17.99
2019-05-29T01:43:50.891Z,17.97
2019-05-29T01:46:21.494Z,17.82
2019-05-29T01:48:50.845Z,17.70
2019-05-29T01:51:20.183Z,17.65
2019-05-29T01:53:49.604Z,17.68
2019-05-29T01:56:19.816Z,17.77
2019-05-29T01:58:49.273Z,17.66
2019-05-29T02:01:19.918Z,17.76
2019-05-29T02:03:49.513Z,17.86
2019-05-29T02:06:19.978Z,17.87
2019-05-29T02:08:49.435Z,17.76
2019-05-29T02:11:19.227Z,17.73
2019-05-29T02:13:48.641Z,17.76
2019-05-29T02:16:18.510Z,17.66
2019-05-29T02:18:47.959Z,17.67
2019-05-29T02:21:17.986Z,17.80
2019-05-29T02:23:47.445Z,17.76
2019-05-29T02:26:17.955Z,17.75
2019-05-29T02:28:47.594Z,17.79
2019-05-29T02:31:17.689Z,17.63
2019-05-29T02:33:48.117Z,17.72
2019-05-29T02:36:17.905Z,17.72
2019-05-29T02:38:47.351Z,17.66
2019-05-29T02:41:16.772Z,17.69
2019-05-29T02:43:46.132Z,17.67
2019-05-29T02:46:15.551Z,17.55
2019-05-29T02:48:44.922Z,17.48
2019-05-29T02:51:14.287Z,17.36
2019-05-29T02:53:43.647Z,17.13
2019-05-29T02:56:13.017Z,17.17
2019-05-29T02:58:42.393Z,17.16
2019-05-29T03:01:11.760Z,17.16
2019-05-29T03:03:41.105Z,17.12
2019-05-29T03:06:10.633Z,17.12
2019-05-29T03:08:40.170Z,17.03
2019-05-29T03:11:09.716Z,17.02
2019-05-29T03:13:39.157Z,17.09
2019-05-29T03:16:12.237Z,17.26
2019-05-29T03:18:39.589Z,17.34
2019-05-29T03:21:09.012Z,17.40
2019-05-29T03:23:38.435Z,17.36
2019-05-29T03:26:07.801Z,17.41
2019-05-29T03:28:38.257Z,17.52
2019-05-29T03:31:07.844Z,17.74
2019-05-29T03:33:44.891Z,18.26
2019-05-29T03:36:08.422Z,18.84
2019-05-29T03:38:38.601Z,19.34
2019-05-29T03:41:07.997Z,19.55
2019-05-29T03:43:38.794Z,19.82
2019-05-29T03:46:26.393Z,19.97
2019-05-29T03:48:39.380Z,20.25
2019-05-29T03:51:08.723Z,20.62
2019-05-29T03:53:38.561Z,21.00
2019-05-29T03:56:07.970Z,21.00
2019-05-29T03:58:37.900Z,21.52
2019-05-29T04:01:07.474Z,21.52
2019-05-29T04:03:38.036Z,21.44
2019-05-29T04:06:07.842Z,21.28
2019-05-29T04:08:38.399Z,21.05
2019-05-29T04:11:08.398Z,21.05
2019-05-29T04:13:38.797Z,21.08
2019-05-29T04:16:09.958Z,21.04
2019-05-29T04:18:40.774Z,20.80
2019-05-29T04:21:12.059Z,20.58
2019-05-29T04:23:43.063Z,20.67
2019-05-29T04:26:14.131Z,20.81
2019-05-29T04:28:43.854Z,21.08
2019-05-29T04:31:13.264Z,21.10
2019-05-29T04:33:42.719Z,21.36
2019-05-29T04:36:12.147Z,21.32
2019-05-29T04:38:41.520Z,21.62
2019-05-29T04:41:10.965Z,21.67
2019-05-29T04:43:40.345Z,21.91
2019-05-29T04:46:09.740Z,22.01
2019-05-29T04:48:40.357Z,21.52
2019-05-29T04:51:10.091Z,21.64
2019-05-29T04:53:39.949Z,21.67
2019-05-29T04:56:09.450Z,22.29
2019-05-29T04:58:39.119Z,22.17
2019-05-29T05:01:08.594Z,21.42
2019-05-29T05:03:39.130Z,21.53
2019-05-29T05:06:08.768Z,21.91
2019-05-29T05:08:39.523Z,22.32
2019-05-29T05:11:10.553Z,22.91
2019-05-29T05:13:39.995Z,23.14
2019-05-29T05:16:09.381Z,23.08
2019-05-29T05:18:40.043Z,23.79
2019-05-29T05:21:09.669Z,24.28
2019-05-29T05:23:40.307Z,24.37
2019-05-29T05:26:10.028Z,24.46
2019-05-29T05:28:42.187Z,24.46
2019-05-29T05:31:10.483Z,24.33
2019-05-29T05:33:41.035Z,24.33
2019-05-29T05:36:10.654Z,24.99
2019-05-29T05:38:41.159Z,25.26
2019-05-29T05:41:10.636Z,24.91
2019-05-29T05:43:41.337Z,25.02
2019-05-29T05:46:10.680Z,24.99
2019-05-29T05:48:41.310Z,24.99
2019-05-29T05:51:11.003Z,25.30
2019-05-29T05:53:40.204Z,25.58
2019-05-29T05:56:09.285Z,26.02
2019-05-29T05:58:39.824Z,26.25
2019-05-29T06:01:09.146Z,26.25
2019-05-29T06:03:38.214Z,26.62
2019-05-29T06:06:07.332Z,26.54
2019-05-29T06:08:36.423Z,26.35
2019-05-29T06:11:05.620Z,26.40
2019-05-29T06:13:34.681Z,26.60
2019-05-29T06:16:03.746Z,26.68
2019-05-29T06:18:32.831Z,26.64
2019-05-29T06:21:01.945Z,27.07
2019-05-29T06:23:31.048Z,27.09
2019-05-29T06:26:00.349Z,27.48
2019-05-29T06:28:29.414Z,27.76
2019-05-29T06:30:58.559Z,28.27
2019-05-29T06:33:27.608Z,28.16
2019-05-29T06:35:56.741Z,27.84
2019-05-29T06:38:25.802Z,28.23
2019-05-29T06:40:54.869Z,28.50
2019-05-29T06:43:25.494Z,28.56
2019-05-29T06:45:55.312Z,28.45
2019-05-29T06:48:42.333Z,29.03
2019-05-29T06:51:01.596Z,28.80
2019-05-29T06:53:30.715Z,28.90
2019-05-29T06:56:01.401Z,29.14
2019-05-29T06:58:30.646Z,29.03
2019-05-29T07:00:59.781Z,28.91
2019-05-29T07:03:28.875Z,29.47
2019-05-29T07:05:57.917Z,29.88
2019-05-29T07:08:38.024Z,30.28
2019-05-29T07:10:57.939Z,30.44
2019-05-29T07:13:27.007Z,30.31
2019-05-29T07:15:56.119Z,30.58
2019-05-29T07:18:25.250Z,30.75
2019-05-29T07:20:54.306Z,30.83
2019-05-29T07:23:23.390Z,30.61
2019-05-29T07:25:52.599Z,30.80
2019-05-29T07:28:21.656Z,30.60
2019-05-29T07:31:00.569Z,31.00
2019-05-29T07:33:21.614Z,31.21
2019-05-29T07:35:50.739Z,31.01
2019-05-29T07:38:19.786Z,31.69
2019-05-29T07:40:50.144Z,31.93
2019-05-29T07:43:19.295Z,31.56
2019-05-29T07:45:48.477Z,32.01
2019-05-29T07:48:17.839Z,31.66
2019-05-29T07:50:46.875Z,31.40
2019-05-29T07:53:15.955Z,31.61
2019-05-29T07:55:45.184Z,31.69
2019-05-29T07:58:14.240Z,32.05
2019-05-29T08:01:05.382Z,30.75
2019-05-29T08:03:14.775Z,31.41
2019-05-29T08:05:47.961Z,31.98
2019-05-29T08:08:14.649Z,31.02
2019-05-29T08:10:43.702Z,31.04
2019-05-29T08:13:12.833Z,30.68
2019-05-29T08:15:56.424Z,30.43
2019-05-29T08:18:12.698Z,30.44
2019-05-29T08:20:41.921Z,30.69
2019-05-29T08:23:11.090Z,30.11
2019-05-29T08:25:41.328Z,31.25
2019-05-29T08:28:10.582Z,31.98
2019-05-29T08:30:41.180Z,32.51
2019-05-29T08:33:10.415Z,32.42
2019-05-29T08:35:41.386Z,32.85
2019-05-29T08:38:10.268Z,32.81
2019-05-29T08:40:39.329Z,33.26
2019-05-29T08:43:08.400Z,31.99
2019-05-29T08:45:37.466Z,31.35
2019-05-29T08:48:06.528Z,31.24
2019-05-29T08:50:35.592Z,32.10
2019-05-29T08:53:04.849Z,32.83
2019-05-29T08:55:33.924Z,33.53
2019-05-29T08:58:02.976Z,32.24
2019-05-29T09:00:32.038Z,32.39
2019-05-29T09:03:01.102Z,32.37
2019-05-29T09:05:30.232Z,33.02
2019-05-29T09:07:59.329Z,32.94
2019-05-29T09:10:28.380Z,32.67
2019-05-29T09:13:04.717Z,32.64
2019-05-29T09:15:28.263Z,32.76
2019-05-29T09:17:57.331Z,33.34
2019-05-29T09:20:49.777Z,33.15
2019-05-29T09:22:57.292Z,33.09
2019-05-29T09:25:26.393Z,33.62
2019-05-29T09:27:55.474Z,33.34
2019-05-29T09:30:24.580Z,33.89
2019-05-29T09:32:53.639Z,34.16
2019-05-29T09:35:24.616Z,33.52
2019-05-29T09:37:53.633Z,33.84
2019-05-29T09:40:23.117Z,32.82
2019-05-29T09:42:52.359Z,32.97
2019-05-29T09:45:21.662Z,33.29
2019-05-29T09:47:50.741Z,33.60
2019-05-29T09:50:22.755Z,33.31
2019-05-29T09:52:50.778Z,33.27
2019-05-29T09:55:19.841Z,33.34
2019-05-29T09:57:48.971Z,33.90
2019-05-29T10:00:19.200Z,33.94
2019-05-29T10:02:48.348Z,33.35
2019-05-29T10:05:17.409Z,33.24
2019-05-29T10:07:46.528Z,33.47
2019-05-29T10:10:16.380Z,33.25
2019-05-29T10:12:45.508Z,33.43
2019-05-29T10:15:15.223Z,34.27
2019-05-29T10:17:44.422Z,34.72
2019-05-29T10:20:15.528Z,34.69
2019-05-29T10:22:44.577Z,34.33
2019-05-29T10:25:13.895Z,33.84
2019-05-29T10:27:43.020Z,33.57
2019-05-29T10:30:12.877Z,34.18
2019-05-29T10:32:42.684Z,34.18
2019-05-29T10:35:12.494Z,34.38
2019-05-29T10:37:42.746Z,34.97
2019-05-29T10:40:12.296Z,35.52
2019-05-29T10:42:41.402Z,35.27
2019-05-29T10:45:12.454Z,34.89
2019-05-29T10:47:41.547Z,35.14
2019-05-29T10:50:11.186Z,34.03
2019-05-29T10:52:40.345Z,34.61
2019-05-29T10:55:09.998Z,34.13
2019-05-29T10:57:39.161Z,34.24
2019-05-29T11:00:11.385Z,34.02
2019-05-29T11:02:40.550Z,34.34
2019-05-29T11:05:09.817Z,35.14
2019-05-29T11:07:38.897Z,35.17
2019-05-29T11:10:13.408Z,35.06
2019-05-29T11:12:41.393Z,35.49
2019-05-29T11:15:20.859Z,35.22
2019-05-29T11:17:41.628Z,35.50
2019-05-29T11:20:12.719Z,35.10
2019-05-29T11:22:41.770Z,34.69
2019-05-29T11:25:23.348Z,35.15
2019-05-29T11:27:41.912Z,35.19
2019-05-29T11:30:12.724Z,35.33
2019-05-29T11:32:41.937Z,34.31
2019-05-29T11:35:12.008Z,34.96
2019-05-29T11:37:41.059Z,34.85
2019-05-29T11:40:10.787Z,35.46
2019-05-29T11:42:39.840Z,35.41
2019-05-29T11:45:10.976Z,35.66
2019-05-29T11:47:40.067Z,35.53
2019-05-29T11:50:19.607Z,36.04
2019-05-29T11:52:44.609Z,36.05
2019-05-29T11:55:13.928Z,35.41
2019-05-29T11:57:43.050Z,35.70
2019-05-29T12:00:20.452Z,35.80
2019-05-29T12:02:45.455Z,36.33
2019-05-29T12:05:15.205Z,35.89
2019-05-29T12:07:44.281Z,35.66
2019-05-29T12:10:13.743Z,36.61
2019-05-29T12:12:42.902Z,36.75
2019-05-29T12:15:17.055Z,36.89
2019-05-29T12:17:45.094Z,36.79
2019-05-29T12:20:27.000Z,36.65
2019-05-29T12:23:11.405Z,36.98
2019-05-29T12:25:16.469Z,37.21
2019-05-29T12:27:45.598Z,36.85
2019-05-29T12:30:16.403Z,36.44
2019-05-29T12:32:46.110Z,36.41
2019-05-29T12:35:15.511Z,36.43
2019-05-29T12:37:44.554Z,36.87
2019-05-29T12:40:15.129Z,36.56
2019-05-29T12:42:45.151Z,36.26
2019-05-29T12:45:14.497Z,35.74
2019-05-29T12:47:43.567Z,35.64
2019-05-29T12:50:13.822Z,35.61
2019-05-29T12:52:43.001Z,34.99
2019-05-29T12:55:15.317Z,35.23
2019-05-29T12:57:44.357Z,35.58
2019-05-29T13:00:15.712Z,36.13
2019-05-29T13:02:44.855Z,35.40
2019-05-29T13:05:20.137Z,35.87
2019-05-29T13:07:45.496Z,36.15
2019-05-29T13:10:30.003Z,36.15
2019-05-29T13:12:48.064Z,35.91
2019-05-29T13:15:18.071Z,35.63
2019-05-29T13:17:47.155Z,36.32
2019-05-29T13:20:21.772Z,36.80
2019-05-29T13:22:48.463Z,35.70
2019-05-29T13:25:17.623Z,34.72
2019-05-29T13:27:46.689Z,34.35
2019-05-29T13:30:17.134Z,33.81
2019-05-29T13:32:46.319Z,34.73
2019-05-29T13:35:15.456Z,35.01
2019-05-29T13:37:44.539Z,34.50
2019-05-29T13:40:14.028Z,34.83
2019-05-29T13:42:43.089Z,35.19
2019-05-29T13:45:18.462Z,35.50
2019-05-29T13:47:44.853Z,36.10
2019-05-29T13:50:14.500Z,35.50
2019-05-29T13:52:43.624Z,36.16
2019-05-29T13:55:14.496Z,35.97
2019-05-29T13:57:43.645Z,35.43
2019-05-29T14:00:34.409Z,35.69
2019-05-29T14:02:46.256Z,36.09
2019-05-29T14:05:16.377Z,36.27
2019-05-29T14:07:45.451Z,35.80
2019-05-29T14:10:16.011Z,35.52
2019-05-29T14:12:45.090Z,35.87
2019-05-29T14:15:14.514Z,35.57
2019-05-29T14:17:43.602Z,35.72
2019-05-29T14:20:13.175Z,36.23
2019-05-29T14:22:42.212Z,35.16
2019-05-29T14:25:13.237Z,34.72
2019-05-29T14:27:42.433Z,34.75
2019-05-29T14:30:14.032Z,34.17
2019-05-29T14:32:43.331Z,33.87
2019-05-29T14:35:13.369Z,33.75
2019-05-29T14:37:42.575Z,33.28
2019-05-29T14:40:12.319Z,32.64
2019-05-29T14:42:41.388Z,32.63
2019-05-29T14:45:12.390Z,32.57
2019-05-29T14:47:41.746Z,32.42
2019-05-29T14:50:13.475Z,32.52
2019-05-29T14:52:42.566Z,32.35
2019-05-29T14:55:16.137Z,32.37
2019-05-29T14:57:42.882Z,32.61
2019-05-29T15:00:23.176Z,32.97
2019-05-29T15:02:44.887Z,32.79
2019-05-29T15:05:15.100Z,32.67
2019-05-29T15:07:44.308Z,32.88
2019-05-29T15:10:24.936Z,32.68
2019-05-29T15:12:44.962Z,32.81
2019-05-29T15:15:16.526Z,32.64
2019-05-29T15:17:45.637Z,32.63
2019-05-29T15:20:16.829Z,32.48
2019-05-29T15:22:46.132Z,32.48
2019-05-29T15:25:24.026Z,32.46
2019-05-29T15:27:48.924Z,32.11
2019-05-29T15:30:23.013Z,31.68
2019-05-29T15:32:49.438Z,31.57
2019-05-29T15:35:20.116Z,31.30
2019-05-29T15:37:49.406Z,31.26
2019-05-29T15:40:18.485Z,31.09
2019-05-29T15:42:47.610Z,31.15
2019-05-29T15:45:18.166Z,31.07
2019-05-29T15:47:47.488Z,31.10
2019-05-29T15:50:18.008Z,30.87
2019-05-29T15:52:47.207Z,30.84
2019-05-29T15:55:28.543Z,30.84
2019-05-29T15:57:47.410Z,30.79
2019-05-29T16:00:17.842Z,30.80
2019-05-29T16:02:48.839Z,30.75
2019-05-29T16:05:19.224Z,30.57
2019-05-29T16:07:48.508Z,30.49
2019-05-29T16:10:20.872Z,30.42
2019-05-29T16:12:49.897Z,30.49
2019-05-29T16:15:19.686Z,30.49
2019-05-29T16:17:48.941Z,30.18
2019-05-29T16:20:18.556Z,30.20
2019-05-29T16:22:47.919Z,30.40
2019-05-29T16:25:17.531Z,30.44
2019-05-29T16:27:46.721Z,30.48
2019-05-29T16:30:18.127Z,30.53
2019-05-29T16:32:47.255Z,30.42
2019-05-29T16:35:17.221Z,30.48
2019-05-29T16:37:46.338Z,30.30
2019-05-29T16:40:18.160Z,30.37
2019-05-29T16:42:47.465Z,30.31
2019-05-29T16:45:18.319Z,30.21
2019-05-29T16:47:47.654Z,30.09
2019-05-29T16:50:19.392Z,29.86
2019-05-29T16:52:48.935Z,29.77
2019-05-29T16:55:19.391Z,29.56
2019-05-29T16:57:48.715Z,29.29
2019-05-29T17:00:19.874Z,29.13
2019-05-29T17:02:48.995Z,28.86
2019-05-29T17:05:18.302Z,28.61
2019-05-29T17:07:47.394Z,28.14
2019-05-29T17:10:16.628Z,28.09
2019-05-29T17:12:45.767Z,28.02
2019-05-29T17:15:17.116Z,27.95
2019-05-29T17:17:46.491Z,27.70
2019-05-29T17:20:17.184Z,27.50
2019-05-29T17:22:46.332Z,27.25
2019-05-29T17:25:16.722Z,27.04
2019-05-29T17:27:45.996Z,27.06
2019-05-29T17:30:18.821Z,26.96
2019-05-29T17:32:48.090Z,26.84
2019-05-29T17:35:17.367Z,26.69
2019-05-29T17:37:46.489Z,26.63
2019-05-29T17:40:16.920Z,26.38
2019-05-29T17:42:46.175Z,26.38
2019-05-29T17:45:19.528Z,26.47
2019-05-29T17:47:46.673Z,26.34
2019-05-29T17:50:19.876Z,26.37
2019-05-29T17:52:46.797Z,26.46
2019-05-29T17:55:19.961Z,26.40
2019-05-29T17:57:49.523Z,26.40
2019-05-29T18:00:20.749Z,26.41
2019-05-29T18:02:52.378Z,26.27
2019-05-29T18:05:20.908Z,26.27
2019-05-29T18:07:50.075Z,26.29
2019-05-29T18:10:22.474Z,26.26
2019-05-29T18:12:52.190Z,26.28
2019-05-29T18:15:21.867Z,26.27
2019-05-29T18:17:51.317Z,26.04
2019-05-29T18:20:21.703Z,25.88
2019-05-29T18:22:51.206Z,25.73
2019-05-29T18:25:21.811Z,25.14
2019-05-29T18:27:51.367Z,24.72
2019-05-29T18:30:20.734Z,24.59
2019-05-29T18:32:49.802Z,24.59
2019-05-29T18:35:19.111Z,24.50
2019-05-29T18:37:48.630Z,24.69
2019-05-29T18:40:20.229Z,24.75
2019-05-29T18:42:49.795Z,24.71
2019-05-29T18:45:22.393Z,24.71
2019-05-29T18:47:50.411Z,24.02
2019-05-29T18:50:19.863Z,24.02
2019-05-29T18:52:49.307Z,23.79
2019-05-29T18:55:19.008Z,23.75
2019-05-29T18:57:48.455Z,23.87
2019-05-29T19:00:21.169Z,23.97
2019-05-29T19:02:50.741Z,23.97
2019-05-29T19:05:21.460Z,23.70
2019-05-29T19:07:51.019Z,23.70
2019-05-29T19:10:21.601Z,23.71
2019-05-29T19:12:51.642Z,23.47
2019-05-29T19:15:21.911Z,23.47
2019-05-29T19:17:51.413Z,23.36
2019-05-29T19:20:22.174Z,23.47
2019-05-29T19:22:51.688Z,23.30
2019-05-29T19:25:22.542Z,23.24
2019-05-29T19:27:52.557Z,23.00
2019-05-29T19:30:23.046Z,23.00
2019-05-29T19:32:52.526Z,23.13
2019-05-29T19:35:23.384Z,23.22
2019-05-29T19:37:53.486Z,23.22
2019-05-29T19:40:24.035Z,23.14
2019-05-29T19:42:54.694Z,23.03
2019-05-29T19:45:24.696Z,23.13
2019-05-29T19:47:54.182Z,23.13
2019-05-29T19:50:24.675Z,23.16
2019-05-29T19:52:54.098Z,23.13
2019-05-29T19:55:23.534Z,23.13
2019-05-29T19:57:56.525Z,23.11
2019-05-29T20:00:24.170Z,23.20
2019-05-29T20:02:53.321Z,22.97
2019-05-29T20:05:22.788Z,22.97
2019-05-29T20:07:52.237Z,22.93
2019-05-29T20:10:21.648Z,22.85
2019-05-29T20:12:51.034Z,22.77
2019-05-29T20:15:20.585Z,22.77
2019-05-29T20:17:50.020Z,22.78
2019-05-29T20:20:19.540Z,22.69
2019-05-29T20:22:48.985Z,22.59
2019-05-29T20:25:18.436Z,22.64
2019-05-29T20:27:47.798Z,22.67
2019-05-29T20:30:18.745Z,22.73
2019-05-29T20:32:48.377Z,22.59
2019-05-29T20:35:18.062Z,22.67
2019-05-29T20:37:47.459Z,22.70
2019-05-29T20:40:17.141Z,22.68
2019-05-29T20:42:46.492Z,22.71
2019-05-29T20:45:17.026Z,22.64
2019-05-29T20:47:46.387Z,22.56
2019-05-29T20:50:15.927Z,22.51
2019-05-29T20:52:45.309Z,22.48
2019-05-29T20:55:14.928Z,22.38
2019-05-29T20:57:44.361Z,22.36
2019-05-29T21:00:16.590Z,22.33
2019-05-29T21:02:46.011Z,22.25
2019-05-29T21:05:15.864Z,22.12
2019-05-29T21:07:45.266Z,22.06
2019-05-29T21:10:14.840Z,22.08
2019-05-29T21:12:47.467Z,22.12
2019-05-29T21:15:15.491Z,22.13
2019-05-29T21:17:44.868Z,22.15
2019-05-29T21:20:14.539Z,22.02
2019-05-29T21:22:44.955Z,22.01
2019-05-29T21:25:18.922Z,21.99
2019-05-29T21:27:49.196Z,22.03
2019-05-29T21:30:19.874Z,21.95
2019-05-29T21:32:49.278Z,21.95
2019-05-29T21:35:18.650Z,21.90
2019-05-29T21:37:48.613Z,21.88
2019-05-29T21:40:18.939Z,21.81
2019-05-29T21:42:48.309Z,21.77
2019-05-29T21:45:17.776Z,21.81
2019-05-29T21:47:47.333Z,21.67
2019-05-29T21:50:16.688Z,21.68
2019-05-29T21:52:46.086Z,21.69
2019-05-29T21:55:15.724Z,21.67
2019-05-29T21:57:48.368Z,21.62
2019-05-29T22:00:22.311Z,21.58
2019-05-29T22:02:51.835Z,21.57
2019-05-29T22:05:21.784Z,21.47
2019-05-29T22:07:51.246Z,21.39
2019-05-29T22:10:20.684Z,21.41
2019-05-29T22:12:50.378Z,21.39
2019-05-29T22:15:19.843Z,21.34
2019-05-29T22:17:49.232Z,21.23
2019-05-29T22:20:18.607Z,21.24
2019-05-29T22:22:48.044Z,21.18
2019-05-29T22:25:17.462Z,21.20
2019-05-29T22:27:46.920Z,21.22
2019-05-29T22:30:16.449Z,21.24
2019-05-29T22:32:45.822Z,21.28
2019-05-29T22:35:16.355Z,21.29
2019-05-29T22:37:45.792Z,21.33
2019-05-29T22:40:15.272Z,21.36
2019-05-29T22:42:44.698Z,21.37
2019-05-29T22:45:14.091Z,21.30
2019-05-29T22:47:43.548Z,21.26
2019-05-29T22:50:13.327Z,21.25
2019-05-29T22:52:42.713Z,21.22
2019-05-29T22:55:12.188Z,21.16
2019-05-29T22:57:41.637Z,21.14
2019-05-29T23:00:12.808Z,21.02
2019-05-29T23:02:42.249Z,20.97
2019-05-29T23:05:11.660Z,20.96
2019-05-29T23:07:41.053Z,20.92
2019-05-29T23:10:11.468Z,20.86
2019-05-29T23:12:40.845Z,20.88
2019-05-29T23:15:10.407Z,20.84
2019-05-29T23:17:39.782Z,20.78
2019-05-29T23:20:09.312Z,20.77
2019-05-29T23:22:38.715Z,20.69
2019-05-29T23:25:08.299Z,20.68
2019-05-29T23:27:37.747Z,20.61
2019-05-29T23:30:11.936Z,20.54
2019-05-29T23:32:41.311Z,20.53
2019-05-29T23:35:10.772Z,20.43
2019-05-29T23:37:40.280Z,20.44
2019-05-29T23:40:10.159Z,20.35
2019-05-29T23:42:39.537Z,20.30
2019-05-29T23:45:08.892Z,20.26
2019-05-29T23:47:38.333Z,20.23
2019-05-29T23:50:08.063Z,20.19
2019-05-29T23:52:37.815Z,20.08
2019-05-29T23:55:10.236Z,20.04
2019-05-29T23:57:39.596Z,19.96
